createdAt,value
2023-05-06T00:00:03.696Z,100156.09
2023-05-06T00:02:30.404Z,100159.84
2023-05-06T00:04:57.159Z,100151.81
2023-05-06T00:07:23.881Z,100151.91
2023-05-06T00:09:50.490Z,100144.44
2023-05-06T00:12:19.272Z,100147.81
2023-05-06T00:14:45.787Z,100145.28
2023-05-06T00:17:12.333Z,100142.63
2023-05-06T00:19:39.028Z,100141.34
2023-05-06T00:22:05.800Z,100135.78
2023-05-06T00:24:32.427Z,100129.72
2023-05-06T00:26:58.947Z,100137.94
2023-05-06T00:29:25.612Z,100132.88
2023-05-06T00:31:52.175Z,100122.13
2023-05-06T00:34:18.767Z,100117.69
2023-05-06T00:36:45.373Z,100109.09
2023-05-06T00:39:11.911Z,100110.31
2023-05-06T00:41:38.467Z,100112.50
2023-05-06T00:44:05.027Z,100106.69
2023-05-06T00:46:31.545Z,100102.34
2023-05-06T00:48:58.219Z,100090.25
2023-05-06T00:51:26.177Z,100101.34
2023-05-06T00:53:52.952Z,100115.97
2023-05-06T00:56:20.877Z,100113.81
2023-05-06T00:58:48.250Z,100103.53
2023-05-06T01:01:14.955Z,100098.47
2023-05-06T01:03:41.648Z,100094.00
2023-05-06T01:06:19.428Z,100088.69
2023-05-06T01:09:01.001Z,100092.69
2023-05-06T01:11:59.669Z,100088.69
2023-05-06T01:14:39.588Z,100086.75
2023-05-06T01:17:11.238Z,100083.88
2023-05-06T01:20:06.322Z,100076.59
2023-05-06T01:22:36.609Z,100079.75
2023-05-06T01:25:03.220Z,100084.59
2023-05-06T01:27:29.763Z,100095.94
2023-05-06T01:29:57.620Z,100098.00
2023-05-06T01:32:52.067Z,100096.91
2023-05-06T01:35:32.259Z,100097.50
2023-05-06T01:38:01.852Z,100107.66
2023-05-06T01:40:30.341Z,100109.31
2023-05-06T01:42:57.583Z,100102.53
2023-05-06T01:45:27.715Z,100107.50
2023-05-06T01:47:54.710Z,100108.75
2023-05-06T01:50:21.643Z,100104.38
2023-05-06T01:53:00.011Z,100097.13
2023-05-06T01:55:27.110Z,100099.78
2023-05-06T01:57:59.291Z,100100.63
2023-05-06T02:00:26.357Z,100091.09
2023-05-06T02:02:53.079Z,100095.69
2023-05-06T02:05:19.863Z,100086.63
2023-05-06T02:07:46.407Z,100080.94
2023-05-06T02:10:12.977Z,100080.91
2023-05-06T02:12:39.554Z,100071.41
2023-05-06T02:15:06.737Z,100066.56
2023-05-06T02:17:35.871Z,100070.91
2023-05-06T02:20:02.406Z,100076.69
2023-05-06T02:22:28.919Z,100065.47
2023-05-06T02:24:55.451Z,100066.44
2023-05-06T02:27:24.625Z,100063.69
2023-05-06T02:29:51.061Z,100063.22
2023-05-06T02:32:17.651Z,100059.19
2023-05-06T02:34:44.233Z,100056.63
2023-05-06T02:37:10.820Z,100051.91
2023-05-06T02:39:37.363Z,100053.16
2023-05-06T02:42:04.114Z,100049.13
2023-05-06T02:44:30.784Z,100047.09
2023-05-06T02:46:57.311Z,100043.00
2023-05-06T02:49:23.875Z,100046.59
2023-05-06T02:51:50.395Z,100039.59
2023-05-06T02:54:16.939Z,100037.78
2023-05-06T02:56:43.708Z,100037.50
2023-05-06T02:59:10.297Z,100045.19
2023-05-06T03:01:36.886Z,100045.41
2023-05-06T03:04:03.755Z,100040.44
2023-05-06T03:06:31.564Z,100042.28
2023-05-06T03:08:58.098Z,100052.81
2023-05-06T03:11:24.689Z,100046.03
2023-05-06T03:13:51.354Z,100055.94
2023-05-06T03:16:17.904Z,100045.03
2023-05-06T03:18:44.811Z,100042.63
2023-05-06T03:21:12.610Z,100056.72
2023-05-06T03:23:39.142Z,100051.31
2023-05-06T03:26:06.034Z,100045.88
2023-05-06T03:28:32.672Z,100045.31
2023-05-06T03:30:59.451Z,100050.25
2023-05-06T03:33:25.998Z,100047.47
2023-05-06T03:35:52.546Z,100050.25
2023-05-06T03:38:19.143Z,100050.03
2023-05-06T03:40:46.074Z,100044.63
2023-05-06T03:43:12.748Z,100051.63
2023-05-06T03:45:39.285Z,100042.22
2023-05-06T03:48:05.927Z,100046.94
2023-05-06T03:50:32.593Z,100037.03
2023-05-06T03:52:59.339Z,100038.34
2023-05-06T03:55:25.932Z,100039.19
2023-05-06T03:57:52.578Z,100045.34
2023-05-06T04:00:19.339Z,100040.63
2023-05-06T04:02:45.918Z,100048.47
2023-05-06T04:05:12.691Z,100044.53
2023-05-06T04:07:39.371Z,100045.94
2023-05-06T04:10:06.734Z,100047.88
2023-05-06T04:12:34.356Z,100045.84
2023-05-06T04:15:01.103Z,100055.59
2023-05-06T04:17:27.715Z,100054.78
2023-05-06T04:19:54.287Z,100056.94
2023-05-06T04:22:20.927Z,100061.88
2023-05-06T04:24:47.607Z,100069.63
2023-05-06T04:27:15.095Z,100074.22
2023-05-06T04:29:41.699Z,100074.69
2023-05-06T04:32:10.315Z,100074.06
2023-05-06T04:34:37.034Z,100073.69
2023-05-06T04:37:03.751Z,100076.88
2023-05-06T04:39:32.074Z,100074.44
2023-05-06T04:41:58.647Z,100072.38
2023-05-06T04:44:25.244Z,100079.75
2023-05-06T04:46:51.785Z,100085.56
2023-05-06T04:49:18.311Z,100080.97
2023-05-06T04:51:44.857Z,100084.72
2023-05-06T04:54:11.369Z,100082.81
2023-05-06T04:56:38.188Z,100085.31
2023-05-06T04:59:04.700Z,100086.28
2023-05-06T05:01:31.284Z,100083.88
2023-05-06T05:03:57.795Z,100084.69
2023-05-06T05:06:24.337Z,100091.66
2023-05-06T05:08:50.986Z,100087.44
2023-05-06T05:11:17.574Z,100091.78
2023-05-06T05:13:44.193Z,100090.00
2023-05-06T05:16:10.841Z,100094.91
2023-05-06T05:18:37.482Z,100096.63
2023-05-06T05:21:04.302Z,100095.47
2023-05-06T05:23:30.991Z,100097.91
2023-05-06T05:25:57.530Z,100094.88
2023-05-06T05:28:24.115Z,100092.84
2023-05-06T05:30:50.732Z,100092.78
2023-05-06T05:33:17.371Z,100095.50
2023-05-06T05:35:44.028Z,100098.44
2023-05-06T05:38:10.971Z,100100.25
2023-05-06T05:40:37.554Z,100104.91
2023-05-06T05:43:04.129Z,100098.81
2023-05-06T05:45:30.652Z,100103.75
2023-05-06T05:47:57.242Z,100102.19
2023-05-06T05:50:23.996Z,100104.56
2023-05-06T05:52:50.505Z,100105.19
2023-05-06T05:55:17.056Z,100107.63
2023-05-06T05:57:43.610Z,100109.78
2023-05-06T06:00:12.267Z,100106.03
2023-05-06T06:02:40.224Z,100113.69
2023-05-06T06:05:07.700Z,100106.22
2023-05-06T06:07:34.374Z,100105.00
2023-05-06T06:10:00.976Z,100111.72
2023-05-06T06:12:27.530Z,100110.41
2023-05-06T06:14:54.037Z,100122.41
2023-05-06T06:17:20.636Z,100118.81
2023-05-06T06:19:47.257Z,100126.31
2023-05-06T06:22:13.832Z,100124.09
2023-05-06T06:24:41.026Z,100124.00
2023-05-06T06:27:07.621Z,100126.31
2023-05-06T06:29:34.171Z,100121.00
2023-05-06T06:32:03.940Z,100125.81
2023-05-06T06:34:30.730Z,100128.19
2023-05-06T06:36:57.266Z,100129.50
2023-05-06T06:39:24.969Z,100132.38
2023-05-06T06:41:51.550Z,100135.94
2023-05-06T06:44:18.090Z,100136.09
2023-05-06T06:46:45.007Z,100135.22
2023-05-06T06:49:11.597Z,100131.31
2023-05-06T06:51:38.251Z,100137.88
2023-05-06T06:54:04.866Z,100142.78
2023-05-06T06:56:31.922Z,100138.16
2023-05-06T06:58:58.488Z,100133.03
2023-05-06T07:01:25.187Z,100143.88
2023-05-06T07:03:51.833Z,100143.75
2023-05-06T07:06:18.385Z,100150.97
2023-05-06T07:08:44.897Z,100153.41
2023-05-06T07:11:12.161Z,100157.69
2023-05-06T07:13:38.664Z,100153.84
2023-05-06T07:16:05.297Z,100158.00
2023-05-06T07:18:31.972Z,100166.47
2023-05-06T07:20:58.522Z,100156.91
2023-05-06T07:23:25.074Z,100168.28
2023-05-06T07:25:51.605Z,100161.31
2023-05-06T07:28:18.172Z,100170.78
2023-05-06T07:30:45.577Z,100173.38
2023-05-06T07:33:12.240Z,100170.19
2023-05-06T07:35:38.801Z,100166.56
2023-05-06T07:38:05.397Z,100171.47
2023-05-06T07:40:32.128Z,100172.44
2023-05-06T07:43:12.110Z,100167.41
2023-05-06T07:45:38.728Z,100164.28
2023-05-06T07:48:06.016Z,100178.03
2023-05-06T07:50:32.823Z,100185.91
2023-05-06T07:53:00.202Z,100188.41
2023-05-06T07:55:26.785Z,100176.25
2023-05-06T07:57:53.409Z,100186.06
2023-05-06T08:00:20.178Z,100185.78
2023-05-06T08:02:47.812Z,100190.69
2023-05-06T08:05:15.230Z,100196.31
2023-05-06T08:07:42.496Z,100202.50
2023-05-06T08:10:10.197Z,100202.13
2023-05-06T08:12:37.437Z,100202.16
2023-05-06T08:15:04.346Z,100205.22
2023-05-06T08:17:30.995Z,100207.88
2023-05-06T08:19:57.549Z,100215.28
2023-05-06T08:22:24.264Z,100212.69
2023-05-06T08:24:50.975Z,100231.13
2023-05-06T08:27:17.525Z,100226.47
2023-05-06T08:29:44.031Z,100222.81
2023-05-06T08:32:10.955Z,100235.59
2023-05-06T08:34:37.599Z,100228.88
2023-05-06T08:37:04.290Z,100245.38
2023-05-06T08:39:31.515Z,100229.59
2023-05-06T08:41:59.545Z,100238.06
2023-05-06T08:44:26.721Z,100242.66
2023-05-06T08:46:53.542Z,100245.31
2023-05-06T08:49:20.104Z,100249.94
2023-05-06T08:51:50.671Z,100244.84
2023-05-06T08:54:17.936Z,100247.16
2023-05-06T08:56:56.322Z,100249.50
2023-05-06T08:59:25.724Z,100259.19
2023-05-06T09:01:53.398Z,100256.19
2023-05-06T09:04:20.086Z,100249.34
2023-05-06T09:06:46.854Z,100258.00
2023-05-06T09:09:14.857Z,100255.59
2023-05-06T09:11:41.427Z,100253.53
2023-05-06T09:14:11.129Z,100253.25
2023-05-06T09:16:39.186Z,100257.34
2023-05-06T09:19:06.247Z,100256.25
2023-05-06T09:21:37.764Z,100268.88
2023-05-06T09:24:06.276Z,100269.81
2023-05-06T09:26:34.393Z,100261.56
2023-05-06T09:29:01.342Z,100278.88
2023-05-06T09:31:29.189Z,100272.22
2023-05-06T09:33:57.264Z,100262.75
2023-05-06T09:36:25.893Z,100262.34
2023-05-06T09:38:54.022Z,100269.97
2023-05-06T09:41:22.834Z,100270.50
2023-05-06T09:43:51.044Z,100267.25
2023-05-06T09:46:17.784Z,100263.09
2023-05-06T09:48:45.972Z,100270.41
2023-05-06T09:51:13.262Z,100272.31
2023-05-06T09:53:39.867Z,100271.94
2023-05-06T09:56:07.574Z,100288.03
2023-05-06T09:58:38.252Z,100272.72
2023-05-06T10:01:06.785Z,100272.44
2023-05-06T10:03:34.265Z,100276.47
2023-05-06T10:06:02.273Z,100275.63
2023-05-06T10:08:29.549Z,100279.59
2023-05-06T10:10:57.014Z,100283.81
2023-05-06T10:13:26.888Z,100290.78
2023-05-06T10:15:54.239Z,100289.59
2023-05-06T10:18:21.748Z,100283.09
2023-05-06T10:20:49.524Z,100275.56
2023-05-06T10:23:28.394Z,100282.91
2023-05-06T10:25:57.718Z,100280.66
2023-05-06T10:28:30.981Z,100284.84
2023-05-06T10:30:59.393Z,100285.66
2023-05-06T10:33:27.199Z,100286.28
2023-05-06T10:36:08.729Z,100287.16
2023-05-06T10:38:41.251Z,100289.78
2023-05-06T10:41:09.686Z,100286.38
2023-05-06T10:43:41.541Z,100282.56
2023-05-06T10:46:10.797Z,100276.28
2023-05-06T10:48:39.957Z,100283.28
2023-05-06T10:51:15.759Z,100290.81
2023-05-06T10:54:04.219Z,100285.59
2023-05-06T10:56:33.249Z,100291.41
2023-05-06T10:59:09.648Z,100289.94
2023-05-06T11:01:37.745Z,100292.34
2023-05-06T11:04:13.151Z,100294.75
2023-05-06T11:06:42.566Z,100290.19
2023-05-06T11:09:17.319Z,100292.28
2023-05-06T11:12:05.128Z,100289.88
2023-05-06T11:14:36.868Z,100295.75
2023-05-06T11:17:28.770Z,100304.16
2023-05-06T11:20:26.529Z,100311.66
2023-05-06T11:22:54.117Z,100311.41
2023-05-06T11:25:40.092Z,100320.91
2023-05-06T11:28:15.435Z,100305.66
2023-05-06T11:30:44.557Z,100300.88
2023-05-06T11:33:17.657Z,100313.91
2023-05-06T11:35:45.127Z,100316.97
2023-05-06T11:38:12.241Z,100326.03
2023-05-06T11:40:41.624Z,100316.38
2023-05-06T11:43:15.493Z,100316.81
2023-05-06T11:45:46.787Z,100312.88
2023-05-06T11:48:15.057Z,100316.97
2023-05-06T11:50:48.990Z,100312.59
2023-05-06T11:53:23.470Z,100320.63
2023-05-06T11:55:52.903Z,100330.47
2023-05-06T11:58:29.425Z,100332.31
2023-05-06T12:00:58.446Z,100331.94
2023-05-06T12:03:26.711Z,100332.91
2023-05-06T12:05:53.594Z,100333.16
2023-05-06T12:08:27.868Z,100329.09
2023-05-06T12:10:58.616Z,100321.09
2023-05-06T12:13:25.402Z,100330.97
2023-05-06T12:15:55.092Z,100330.34
2023-05-06T12:18:23.781Z,100339.75
2023-05-06T12:20:50.453Z,100341.03
2023-05-06T12:23:17.857Z,100333.28
2023-05-06T12:25:49.105Z,100335.47
2023-05-06T12:28:17.512Z,100348.75
2023-05-06T12:30:44.807Z,100344.59
2023-05-06T12:33:12.401Z,100354.84
2023-05-06T12:35:40.010Z,100349.53
2023-05-06T12:38:13.583Z,100351.75
2023-05-06T12:40:41.326Z,100344.88
2023-05-06T12:43:08.259Z,100348.66
2023-05-06T12:45:35.187Z,100349.63
2023-05-06T12:48:02.968Z,100347.03
2023-05-06T12:50:37.144Z,100341.59
2023-05-06T12:53:05.167Z,100356.03
2023-05-06T12:55:36.223Z,100349.81
2023-05-06T12:58:03.940Z,100340.94
2023-05-06T13:00:30.609Z,100343.75
2023-05-06T13:02:57.209Z,100340.28
2023-05-06T13:05:23.815Z,100344.44
2023-05-06T13:07:51.176Z,100357.56
2023-05-06T13:10:17.709Z,100358.22
2023-05-06T13:12:44.260Z,100352.22
2023-05-06T13:15:10.975Z,100343.97
2023-05-06T13:17:37.687Z,100338.88
2023-05-06T13:20:05.452Z,100342.81
2023-05-06T13:22:40.308Z,100335.91
2023-05-06T13:25:11.531Z,100338.25
2023-05-06T13:27:38.316Z,100335.47
2023-05-06T13:30:05.791Z,100349.63
2023-05-06T13:32:33.054Z,100358.03
2023-05-06T13:34:59.788Z,100352.78
2023-05-06T13:37:26.352Z,100355.44
2023-05-06T13:39:53.010Z,100359.31
2023-05-06T13:42:19.625Z,100359.84
2023-05-06T13:44:46.204Z,100358.34
2023-05-06T13:47:12.726Z,100359.94
2023-05-06T13:49:39.227Z,100371.34
2023-05-06T13:52:08.012Z,100364.84
2023-05-06T13:54:34.984Z,100359.09
2023-05-06T13:57:01.484Z,100357.97
2023-05-06T13:59:28.016Z,100353.94
2023-05-06T14:02:04.140Z,100346.94
2023-05-06T14:04:32.210Z,100365.84
2023-05-06T14:06:59.216Z,100363.38
2023-05-06T14:09:25.762Z,100370.34
2023-05-06T14:11:52.254Z,100366.16
2023-05-06T14:14:18.788Z,100371.66
2023-05-06T14:16:45.592Z,100366.78
2023-05-06T14:19:12.140Z,100356.72
2023-05-06T14:21:38.673Z,100360.84
2023-05-06T14:24:07.571Z,100370.09
2023-05-06T14:26:34.604Z,100368.81
2023-05-06T14:29:01.208Z,100366.69
2023-05-06T14:31:29.524Z,100373.06
2023-05-06T14:33:56.401Z,100384.06
2023-05-06T14:36:22.955Z,100383.63
2023-05-06T14:38:49.492Z,100387.09
2023-05-06T14:41:16.242Z,100385.97
2023-05-06T14:43:42.805Z,100383.81
2023-05-06T14:46:09.458Z,100372.81
2023-05-06T14:48:36.025Z,100372.94
2023-05-06T14:51:02.557Z,100373.38
2023-05-06T14:53:29.191Z,100382.75
2023-05-06T14:55:56.506Z,100378.75
2023-05-06T14:58:23.185Z,100393.13
2023-05-06T15:00:49.889Z,100382.34
2023-05-06T15:03:16.631Z,100384.44
2023-05-06T15:05:43.325Z,100390.53
2023-05-06T15:08:10.145Z,100386.47
2023-05-06T15:10:36.815Z,100392.06
2023-05-06T15:13:03.715Z,100393.81
2023-05-06T15:15:30.393Z,100401.66
2023-05-06T15:17:56.985Z,100403.41
2023-05-06T15:20:23.614Z,100396.44
2023-05-06T15:22:50.194Z,100400.59
2023-05-06T15:25:26.559Z,100407.22
2023-05-06T15:27:58.340Z,100402.00
2023-05-06T15:30:24.869Z,100410.06
2023-05-06T15:32:51.474Z,100406.31
2023-05-06T15:35:18.020Z,100409.47
2023-05-06T15:37:44.546Z,100408.94
2023-05-06T15:40:13.915Z,100407.81
2023-05-06T15:42:40.753Z,100407.56
2023-05-06T15:45:07.809Z,100409.81
2023-05-06T15:47:34.411Z,100407.19
2023-05-06T15:50:01.663Z,100404.59
2023-05-06T15:52:42.686Z,100404.78
2023-05-06T15:55:09.950Z,100402.31
2023-05-06T15:57:36.602Z,100402.53
2023-05-06T16:00:05.144Z,100406.03
2023-05-06T16:02:32.714Z,100404.63
2023-05-06T16:04:59.662Z,100414.25
2023-05-06T16:07:27.701Z,100416.69
2023-05-06T16:09:54.208Z,100406.47
2023-05-06T16:12:20.777Z,100404.59
2023-05-06T16:14:47.359Z,100405.91
2023-05-06T16:17:15.720Z,100409.97
2023-05-06T16:19:42.273Z,100403.63
2023-05-06T16:22:08.842Z,100409.63
2023-05-06T16:24:35.368Z,100405.28
2023-05-06T16:27:02.400Z,100412.63
2023-05-06T16:29:28.954Z,100408.13
2023-05-06T16:31:55.638Z,100418.03
2023-05-06T16:34:22.367Z,100418.41
2023-05-06T16:36:49.248Z,100418.91
2023-05-06T16:39:15.884Z,100417.13
2023-05-06T16:41:42.572Z,100411.84
2023-05-06T16:44:09.093Z,100416.47
2023-05-06T16:46:35.633Z,100414.03
2023-05-06T16:49:03.809Z,100417.41
2023-05-06T16:51:31.200Z,100416.94
2023-05-06T16:53:57.748Z,100426.50
2023-05-06T16:56:25.362Z,100423.13
2023-05-06T16:58:53.122Z,100425.88
2023-05-06T17:01:19.788Z,100430.72
2023-05-06T17:03:46.413Z,100430.56
2023-05-06T17:06:13.382Z,100428.38
2023-05-06T17:08:40.062Z,100426.34
2023-05-06T17:11:06.874Z,100419.94
2023-05-06T17:13:34.125Z,100426.81
2023-05-06T17:16:00.974Z,100422.69
2023-05-06T17:18:27.642Z,100426.44
2023-05-06T17:20:56.713Z,100425.84
2023-05-06T17:23:24.499Z,100432.72
2023-05-06T17:25:51.420Z,100436.09
2023-05-06T17:28:18.883Z,100435.78
2023-05-06T17:30:45.914Z,100440.13
2023-05-06T17:33:12.741Z,100436.00
2023-05-06T17:35:39.450Z,100430.16
2023-05-06T17:38:06.101Z,100432.88
2023-05-06T17:40:32.656Z,100437.81
2023-05-06T17:42:59.433Z,100435.44
2023-05-06T17:45:28.193Z,100443.03
2023-05-06T17:47:55.158Z,100442.31
2023-05-06T17:50:22.416Z,100445.09
2023-05-06T17:52:51.103Z,100439.72
2023-05-06T17:55:17.913Z,100437.56
2023-05-06T17:57:44.727Z,100446.00
2023-05-06T18:00:11.768Z,100442.81
2023-05-06T18:02:38.517Z,100451.25
2023-05-06T18:05:06.495Z,100455.50
2023-05-06T18:07:35.759Z,100452.13
2023-05-06T18:10:02.349Z,100461.28
2023-05-06T18:12:29.050Z,100463.63
2023-05-06T18:14:57.474Z,100463.16
2023-05-06T18:17:24.109Z,100461.78
2023-05-06T18:19:50.793Z,100470.63
2023-05-06T18:22:17.390Z,100459.38
2023-05-06T18:24:44.149Z,100472.22
2023-05-06T18:27:10.896Z,100468.63
2023-05-06T18:29:37.432Z,100482.31
2023-05-06T18:32:06.515Z,100481.91
2023-05-06T18:34:33.173Z,100486.16
2023-05-06T18:36:59.668Z,100492.09
2023-05-06T18:39:26.513Z,100493.34
2023-05-06T18:41:53.046Z,100493.59
2023-05-06T18:44:19.606Z,100504.94
2023-05-06T18:46:46.223Z,100499.41
2023-05-06T18:49:14.088Z,100507.22
2023-05-06T18:51:40.914Z,100510.53
2023-05-06T18:54:07.642Z,100511.78
2023-05-06T18:56:35.510Z,100517.38
2023-05-06T18:59:02.139Z,100515.38
2023-05-06T19:01:28.833Z,100516.41
2023-05-06T19:03:56.700Z,100518.00
2023-05-06T19:06:23.472Z,100517.06
2023-05-06T19:08:50.128Z,100506.75
2023-05-06T19:11:18.942Z,100514.31
2023-05-06T19:13:46.285Z,100519.38
2023-05-06T19:16:13.955Z,100522.75
2023-05-06T19:18:40.643Z,100522.25
2023-05-06T19:21:10.015Z,100521.81
2023-05-06T19:23:36.742Z,100524.38
2023-05-06T19:26:06.278Z,100527.63
2023-05-06T19:28:33.452Z,100528.81
2023-05-06T19:31:00.018Z,100523.09
2023-05-06T19:33:26.963Z,100529.44
2023-05-06T19:35:53.504Z,100524.34
2023-05-06T19:38:20.483Z,100526.88
2023-05-06T19:40:47.026Z,100529.53
2023-05-06T19:43:13.623Z,100536.84
2023-05-06T19:45:40.235Z,100537.16
2023-05-06T19:48:08.582Z,100545.91
2023-05-06T19:50:35.438Z,100547.03
2023-05-06T19:53:02.066Z,100541.59
2023-05-06T19:55:28.627Z,100542.22
2023-05-06T19:57:58.884Z,100547.59
2023-05-06T20:00:28.017Z,100541.75
2023-05-06T20:02:56.507Z,100533.72
2023-05-06T20:05:23.642Z,100536.03
2023-05-06T20:07:51.281Z,100536.22
2023-05-06T20:10:17.810Z,100530.69
2023-05-06T20:12:44.468Z,100526.94
2023-05-06T20:15:11.566Z,100525.53
2023-05-06T20:17:38.541Z,100526.00
2023-05-06T20:20:09.733Z,100530.34
2023-05-06T20:22:37.490Z,100526.81
2023-05-06T20:25:13.129Z,100531.06
2023-05-06T20:27:40.035Z,100529.63
2023-05-06T20:30:08.113Z,100533.25
2023-05-06T20:32:34.936Z,100538.19
2023-05-06T20:35:01.510Z,100540.00
2023-05-06T20:37:28.694Z,100538.66
2023-05-06T20:39:55.346Z,100539.25
2023-05-06T20:42:21.887Z,100537.34
2023-05-06T20:44:51.270Z,100540.75
2023-05-06T20:47:17.737Z,100544.34
2023-05-06T20:49:44.317Z,100543.38
2023-05-06T20:52:14.474Z,100551.38
2023-05-06T20:54:45.290Z,100545.16
2023-05-06T20:57:13.872Z,100554.72
2023-05-06T20:59:40.391Z,100551.00
2023-05-06T21:02:07.078Z,100562.19
2023-05-06T21:04:33.767Z,100554.91
2023-05-06T21:07:00.395Z,100562.31
2023-05-06T21:09:28.037Z,100563.19
2023-05-06T21:11:55.654Z,100572.31
2023-05-06T21:14:24.718Z,100571.66
2023-05-06T21:16:52.111Z,100569.66
2023-05-06T21:19:22.234Z,100568.06
2023-05-06T21:21:48.820Z,100559.44
2023-05-06T21:24:15.745Z,100565.03
2023-05-06T21:26:42.349Z,100558.94
2023-05-06T21:29:08.900Z,100565.00
2023-05-06T21:31:35.587Z,100566.00
2023-05-06T21:34:03.465Z,100564.44
2023-05-06T21:36:29.998Z,100560.41
2023-05-06T21:39:05.532Z,100575.41
2023-05-06T21:41:32.103Z,100580.72
2023-05-06T21:43:58.645Z,100567.88
2023-05-06T21:46:25.488Z,100575.81
2023-05-06T21:48:52.149Z,100581.84
2023-05-06T21:51:18.683Z,100578.16
2023-05-06T21:53:49.721Z,100577.34
2023-05-06T21:56:17.431Z,100579.13
2023-05-06T21:58:44.130Z,100583.19
2023-05-06T22:01:10.822Z,100578.56
2023-05-06T22:03:37.639Z,100580.53
2023-05-06T22:06:04.904Z,100578.84
2023-05-06T22:08:31.679Z,100572.97
2023-05-06T22:10:58.210Z,100574.28
2023-05-06T22:13:26.795Z,100569.38
2023-05-06T22:15:53.957Z,100584.88
2023-05-06T22:18:20.689Z,100585.38
2023-05-06T22:20:49.216Z,100580.84
2023-05-06T22:23:15.831Z,100583.28
2023-05-06T22:25:42.360Z,100581.13
2023-05-06T22:28:08.934Z,100584.53
2023-05-06T22:30:35.637Z,100579.88
2023-05-06T22:33:02.225Z,100581.75
2023-05-06T22:35:28.852Z,100578.75
2023-05-06T22:37:55.400Z,100587.84
2023-05-06T22:40:21.943Z,100588.41
2023-05-06T22:42:48.468Z,100581.81
2023-05-06T22:45:15.056Z,100589.06
2023-05-06T22:47:41.683Z,100594.47
2023-05-06T22:50:08.966Z,100588.91
2023-05-06T22:52:35.534Z,100595.31
2023-05-06T22:55:02.601Z,100591.72
2023-05-06T22:57:29.161Z,100588.78
2023-05-06T22:59:55.711Z,100589.31
2023-05-06T23:02:22.282Z,100594.75
2023-05-06T23:04:48.933Z,100598.50
2023-05-06T23:07:15.807Z,100585.81
2023-05-06T23:09:42.341Z,100597.00
2023-05-06T23:12:08.921Z,100589.22
2023-05-06T23:14:35.542Z,100590.59
2023-05-06T23:17:02.176Z,100586.75
2023-05-06T23:19:38.638Z,100585.22
2023-05-06T23:22:07.582Z,100593.22
2023-05-06T23:24:34.117Z,100587.75
2023-05-06T23:27:01.211Z,100592.03
2023-05-06T23:29:27.788Z,100585.41
2023-05-06T23:31:54.554Z,100592.03
2023-05-06T23:34:21.110Z,100590.72
2023-05-06T23:36:50.966Z,100592.50
2023-05-06T23:39:17.652Z,100597.19
2023-05-06T23:41:47.019Z,100599.94
2023-05-06T23:44:13.445Z,100598.16
2023-05-06T23:46:40.182Z,100601.06
2023-05-06T23:49:06.818Z,100598.59
2023-05-06T23:51:33.473Z,100607.00
2023-05-06T23:53:59.976Z,100602.75
2023-05-06T23:56:26.510Z,100602.56
2023-05-06T23:58:53.038Z,100599.53
